createdAt,value
2023-05-19T00:01:21.481Z,100747.94
2023-05-19T00:06:25.511Z,100747.22
2023-05-19T00:11:28.754Z,100747.91
2023-05-19T00:16:31.776Z,100742.16
2023-05-19T00:21:33.683Z,100742.28
2023-05-19T00:26:35.681Z,100736.47
2023-05-19T00:31:40.328Z,100732.97
2023-05-19T00:36:44.355Z,100728.81
2023-05-19T00:41:48.965Z,100726.78
2023-05-19T00:46:50.999Z,100718.97
2023-05-19T00:51:53.350Z,100724.91
2023-05-19T00:56:57.102Z,100717.81
2023-05-19T01:01:59.055Z,100713.78
2023-05-19T01:07:01.283Z,100719.59
2023-05-19T01:12:03.827Z,100720.13
2023-05-19T01:17:29.665Z,100720.13
2023-05-19T01:23:01.892Z,100723.31
2023-05-19T01:28:06.581Z,100728.13
2023-05-19T01:33:15.987Z,100729.53
2023-05-19T01:38:19.553Z,100724.91
2023-05-19T01:43:25.432Z,100721.06
2023-05-19T01:48:29.115Z,100724.28
2023-05-19T01:53:32.719Z,100723.97
2023-05-19T01:58:38.410Z,100733.06
2023-05-19T02:04:03.383Z,100729.38
2023-05-19T02:09:16.523Z,100726.34
2023-05-19T02:14:34.217Z,100722.09
2023-05-19T02:19:40.167Z,100723.41
2023-05-19T02:24:42.076Z,100722.38
2023-05-19T02:29:43.977Z,100721.44
2023-05-19T02:34:45.840Z,100719.78
2023-05-19T02:39:48.134Z,100712.47
2023-05-19T02:44:50.089Z,100716.88
2023-05-19T02:49:52.897Z,100711.94
2023-05-19T02:54:54.766Z,100702.34
2023-05-19T02:59:56.670Z,100713.91
2023-05-19T03:04:58.644Z,100713.25
2023-05-19T03:10:03.905Z,100713.47
2023-05-19T03:15:07.047Z,100715.28
2023-05-19T03:20:10.922Z,100707.63
2023-05-19T03:25:12.832Z,100713.84
2023-05-19T03:30:15.749Z,100713.84
2023-05-19T03:35:37.862Z,100709.53
2023-05-19T03:40:41.537Z,100700.75
2023-05-19T03:45:46.428Z,100704.09
2023-05-19T03:51:07.347Z,100709.28
2023-05-19T03:56:13.833Z,100710.09
2023-05-19T04:01:15.903Z,100713.44
2023-05-19T04:06:19.228Z,100715.66
2023-05-19T04:11:21.582Z,100712.84
2023-05-19T04:16:23.708Z,100727.94
2023-05-19T04:21:25.945Z,100723.38
2023-05-19T04:26:31.269Z,100723.38
2023-05-19T04:31:34.622Z,100703.84
2023-05-19T04:36:38.492Z,100699.06
2023-05-19T04:41:43.842Z,100699.75
2023-05-19T04:46:46.240Z,100695.19
2023-05-19T04:51:52.289Z,100694.09
2023-05-19T04:56:59.649Z,100691.81
2023-05-19T05:02:04.555Z,100680.22
2023-05-19T05:07:06.529Z,100680.88
2023-05-19T05:12:09.804Z,100673.47
2023-05-19T05:17:14.281Z,100674.78
2023-05-19T05:22:17.701Z,100679.75
2023-05-19T05:27:19.696Z,100686.00
2023-05-19T05:32:22.165Z,100691.78
2023-05-19T05:37:24.573Z,100699.75
2023-05-19T05:42:29.480Z,100695.13
2023-05-19T05:47:32.446Z,100686.84
2023-05-19T05:52:40.002Z,100696.75
2023-05-19T05:57:43.183Z,100698.31
2023-05-19T06:02:50.681Z,100697.63
2023-05-19T06:07:55.253Z,100704.94
2023-05-19T06:13:01.391Z,100705.03
2023-05-19T06:18:03.585Z,100712.88
2023-05-19T06:23:05.611Z,100703.44
2023-05-19T06:28:07.616Z,100709.81
2023-05-19T06:33:09.711Z,100700.09
2023-05-19T06:38:14.134Z,100697.34
2023-05-19T06:43:17.164Z,100694.50
2023-05-19T06:48:30.820Z,100688.22
2023-05-19T06:53:34.133Z,100692.41
2023-05-19T06:58:40.007Z,100686.44
2023-05-19T07:03:43.524Z,100686.16
2023-05-19T07:08:47.067Z,100686.91
2023-05-19T07:13:49.385Z,100684.56
2023-05-19T07:18:57.985Z,100674.53
2023-05-19T07:24:00.205Z,100668.28
2023-05-19T07:29:03.755Z,100664.31
2023-05-19T07:34:06.045Z,100654.13
2023-05-19T07:39:08.055Z,100649.34
2023-05-19T07:44:10.914Z,100645.78
2023-05-19T07:49:12.884Z,100634.16
2023-05-19T07:54:14.781Z,100647.94
2023-05-19T07:59:16.842Z,100645.50
2023-05-19T08:04:18.840Z,100626.31
2023-05-19T08:09:20.767Z,100625.91
2023-05-19T08:14:22.994Z,100624.34
2023-05-19T08:19:25.012Z,100614.03
2023-05-19T08:24:30.265Z,100610.44
2023-05-19T08:29:32.293Z,100600.53
2023-05-19T08:34:34.469Z,100597.81
2023-05-19T08:39:36.854Z,100588.78
2023-05-19T08:44:40.220Z,100595.03
2023-05-19T08:49:45.399Z,100578.31
2023-05-19T08:54:55.032Z,100567.50
2023-05-19T08:59:58.918Z,100578.25
2023-05-19T09:05:01.682Z,100570.72
2023-05-19T09:10:04.496Z,100554.22
2023-05-19T09:15:09.227Z,100547.91
2023-05-19T09:20:13.824Z,100551.94
2023-05-19T09:25:25.974Z,100544.41
2023-05-19T09:30:30.963Z,100532.09
2023-05-19T09:35:35.399Z,100532.75
2023-05-19T09:40:37.621Z,100527.41
2023-05-19T09:45:39.602Z,100528.69
2023-05-19T09:50:44.423Z,100539.69
2023-05-19T09:55:47.096Z,100530.28
2023-05-19T10:00:50.678Z,100534.28
2023-05-19T10:05:53.734Z,100514.78
2023-05-19T10:10:56.922Z,100503.41
2023-05-19T10:16:00.287Z,100503.88
2023-05-19T10:21:02.924Z,100515.66
2023-05-19T10:26:06.962Z,100488.91
2023-05-19T10:31:14.933Z,100485.25
2023-05-19T10:36:47.066Z,100488.34
2023-05-19T10:42:12.769Z,100485.81
2023-05-19T10:47:14.790Z,100474.00
2023-05-19T10:52:21.972Z,100481.25
2023-05-19T10:57:32.471Z,100475.44
2023-05-19T11:02:41.644Z,100461.78
2023-05-19T11:08:06.295Z,100464.91
2023-05-19T11:13:08.244Z,100463.78
2023-05-19T11:18:10.891Z,100461.22
2023-05-19T11:23:20.345Z,100459.25
2023-05-19T11:28:28.254Z,100458.97
2023-05-19T11:33:32.640Z,100451.72
2023-05-19T11:38:35.204Z,100448.22
2023-05-19T11:43:37.067Z,100438.44
2023-05-19T11:48:39.042Z,100443.47
2023-05-19T11:54:05.948Z,100428.06
2023-05-19T11:59:08.826Z,100421.94
2023-05-19T12:04:10.829Z,100422.03
2023-05-19T12:09:12.733Z,100403.91
2023-05-19T12:14:15.686Z,100422.50
2023-05-19T12:19:17.765Z,100411.69
2023-05-19T12:24:20.800Z,100403.84
2023-05-19T12:29:22.708Z,100392.00
2023-05-19T12:34:25.685Z,100397.50
2023-05-19T12:39:29.266Z,100399.84
2023-05-19T12:44:39.616Z,100400.78
2023-05-19T12:50:00.392Z,100395.56
2023-05-19T12:55:07.603Z,100391.56
2023-05-19T13:00:25.743Z,100382.88
2023-05-19T13:05:29.252Z,100371.59
2023-05-19T13:15:37.882Z,100365.63
2023-05-19T13:20:41.947Z,100363.50
2023-05-19T13:25:45.032Z,100361.00
2023-05-19T13:30:49.788Z,100364.63
2023-05-19T13:36:18.889Z,100361.81
2023-05-19T13:41:29.416Z,100350.59
2023-05-19T13:46:44.605Z,100343.53
2023-05-19T13:51:50.055Z,100355.66
2023-05-19T13:56:54.281Z,100344.22
2023-05-19T14:01:58.255Z,100346.19
2023-05-19T14:07:06.444Z,100337.81
2023-05-19T14:12:20.229Z,100335.13
2023-05-19T14:17:27.709Z,100334.00
2023-05-19T14:22:29.704Z,100339.47
2023-05-19T14:27:31.643Z,100339.25
2023-05-19T14:32:34.648Z,100333.19
2023-05-19T14:37:41.529Z,100334.81
2023-05-19T14:42:43.530Z,100330.28
2023-05-19T14:47:53.055Z,100331.88
2023-05-19T14:52:56.680Z,100329.03
2023-05-19T14:57:59.824Z,100321.31
2023-05-19T15:03:03.341Z,100328.19
2023-05-19T15:08:06.614Z,100326.00
2023-05-19T15:13:09.752Z,100320.94
2023-05-19T15:18:13.435Z,100319.59
2023-05-19T15:23:15.558Z,100319.22
2023-05-19T15:28:18.133Z,100310.75
2023-05-19T15:33:20.154Z,100313.41
2023-05-19T15:38:22.146Z,100313.31
2023-05-19T15:43:24.035Z,100305.53
2023-05-19T15:48:28.893Z,100308.91
2023-05-19T15:53:31.001Z,100313.81
2023-05-19T15:58:32.919Z,100316.09
2023-05-19T16:03:34.929Z,100312.78
2023-05-19T16:08:38.056Z,100309.66
2023-05-19T16:13:39.916Z,100302.19
2023-05-19T16:18:44.235Z,100305.53
2023-05-19T16:23:46.213Z,100303.41
2023-05-19T16:28:48.083Z,100300.53
2023-05-19T16:33:50.549Z,100302.00
2023-05-19T16:38:53.494Z,100301.59
2023-05-19T16:43:55.444Z,100297.78
2023-05-19T16:48:57.293Z,100300.66
2023-05-19T16:53:59.127Z,100296.63
2023-05-19T16:59:01.136Z,100305.16
2023-05-19T17:04:03.142Z,100298.41
2023-05-19T17:09:05.048Z,100302.19
2023-05-19T17:14:09.268Z,100301.78
2023-05-19T17:19:12.197Z,100294.66
2023-05-19T17:24:14.028Z,100301.50
2023-05-19T17:29:15.860Z,100296.91
2023-05-19T17:34:17.773Z,100299.16
2023-05-19T17:39:20.364Z,100303.88
2023-05-19T17:44:22.270Z,100303.44
2023-05-19T17:49:25.753Z,100304.56
2023-05-19T17:54:28.017Z,100301.19
2023-05-19T17:59:30.605Z,100298.56
2023-05-19T18:04:32.880Z,100308.47
2023-05-19T18:09:37.666Z,100312.66
2023-05-19T18:14:39.927Z,100310.97
2023-05-19T18:19:41.871Z,100317.09
2023-05-19T18:24:44.072Z,100316.03
2023-05-19T18:29:45.962Z,100306.84
2023-05-19T18:34:49.105Z,100321.06
2023-05-19T18:39:51.199Z,100320.69
2023-05-19T18:44:53.268Z,100337.03
2023-05-19T18:49:55.208Z,100335.41
2023-05-19T18:54:57.082Z,100354.81
2023-05-19T18:59:58.980Z,100356.63
2023-05-19T19:05:01.581Z,100368.97
2023-05-19T19:10:03.665Z,100372.16
2023-05-19T19:15:06.127Z,100377.00
2023-05-19T19:20:08.981Z,100380.44
2023-05-19T19:25:10.960Z,100375.63
2023-05-19T19:30:13.105Z,100385.66
2023-05-19T19:35:16.057Z,100379.63
2023-05-19T19:40:17.977Z,100387.66
2023-05-19T19:45:20.957Z,100387.16
2023-05-19T19:50:23.702Z,100387.97
2023-05-19T19:55:25.690Z,100394.03
2023-05-19T20:00:27.528Z,100398.63
2023-05-19T20:05:29.391Z,100394.44
2023-05-19T20:10:31.430Z,100396.81
2023-05-19T20:15:33.363Z,100403.63
2023-05-19T20:20:35.707Z,100405.94
2023-05-19T20:25:53.719Z,100409.31
2023-05-19T20:30:56.646Z,100401.53
2023-05-19T20:35:58.510Z,100407.97
2023-05-19T20:41:00.358Z,100413.53
2023-05-19T20:46:03.818Z,100417.88
2023-05-19T20:51:06.109Z,100406.69
2023-05-19T20:56:10.561Z,100414.72
2023-05-19T21:01:12.526Z,100414.69
2023-05-19T21:06:14.396Z,100409.94
2023-05-19T21:11:16.241Z,100418.88
2023-05-19T21:16:18.113Z,100423.88
2023-05-19T21:21:19.975Z,100419.69
2023-05-19T21:26:22.194Z,100427.84
2023-05-19T21:31:24.119Z,100428.47
2023-05-19T21:36:26.123Z,100431.47
2023-05-19T21:41:27.994Z,100426.34
2023-05-19T21:46:29.917Z,100425.38
2023-05-19T21:51:32.208Z,100424.53
2023-05-19T21:56:34.187Z,100413.81
2023-05-19T22:01:36.050Z,100421.06
2023-05-19T22:06:37.934Z,100413.69
2023-05-19T22:11:40.258Z,100416.72
2023-05-19T22:16:42.218Z,100416.03
2023-05-19T22:21:44.095Z,100411.97
2023-05-19T22:26:47.073Z,100409.50
2023-05-19T22:31:48.946Z,100400.97
2023-05-19T22:36:50.789Z,100402.25
2023-05-19T22:41:52.637Z,100401.38
2023-05-19T22:46:54.643Z,100402.78
2023-05-19T22:51:56.504Z,100399.34
2023-05-19T22:56:58.372Z,100401.53
2023-05-19T23:02:00.288Z,100401.78
2023-05-19T23:07:02.128Z,100396.75
2023-05-19T23:12:04.133Z,100399.66
2023-05-19T23:17:06.076Z,100412.31
2023-05-19T23:22:08.125Z,100412.78
2023-05-19T23:27:09.991Z,100412.22
2023-05-19T23:32:11.846Z,100406.41
2023-05-19T23:37:13.729Z,100404.97
2023-05-19T23:42:15.643Z,100401.22
2023-05-19T23:47:17.491Z,100392.53
2023-05-19T23:52:19.375Z,100385.50
2023-05-19T23:57:21.511Z,100388.88
